• Join FlightAware (Why Join?)
  • Login
  • US Flag GB Flag 
10:33 EDT


 

Airport Tracker/Info


-or-


 

Live Flight TrackerFlight Track Log ✈ USC105 ✈ 11-Apr-2013 ✈ KYIP - KLCK

Flight Track Log - Related Links

Times and Time Zones

All times are in EDT time to prevent confusion due to time zone crossing. See the USC105 flight status page for this flight to view local times or setup timezone preferences in your user account.

Time Position Orientation Groundspeed Altitude Reporting Facility
EDT Latitude Longitude Course Direction KTS MPH feet Rate Location/Type
07:19 42.2469 -83.5425 299° West 124 143 1,800  Level Cleveland Center
07:19 42.2544 -83.5622 297° West 137 158 2,400 1,320 Climbing FAA TRACON SMA TRACON (SMA)
07:20 42.2600 -83.5808 292° West 138 159 2,900 1,020 Climbing FAA TRACON SMA TRACON (SMA)
07:20 42.2600 -83.5967 270° West 142 163 3,100 900 Climbing FAA TRACON SMA TRACON (SMA)
07:20 42.2533 -83.6097 235° Southwest 138 159 3,500 1,380 Climbing FAA TRACON SMA TRACON (SMA)
07:21 42.2478 -83.6211 237° Southwest 125 144 4,000 900 Climbing FAA TRACON SMA TRACON (SMA)
07:21 42.2392 -83.6392 237° Southwest 139 160 4,100 120 Climbing FAA TRACON SMA TRACON (SMA)
07:21 42.2308 -83.6542 233° Southwest 159 183 4,100  Level FAA TRACON SMA TRACON (SMA)
07:22 42.2194 -83.6644 214° Southwest 157 181 4,100  Level FAA TRACON SMA TRACON (SMA)
07:22 42.2058 -83.6747 209° Southwest 162 186 4,100  Level FAA TRACON SMA TRACON (SMA)
07:22 42.1922 -83.6853 210° Southwest 165 190 4,100  Level FAA TRACON SMA TRACON (SMA)
07:23 42.1764 -83.6958 206° Southwest 165 190 4,100  Level FAA TRACON SMA TRACON (SMA)
07:23 42.1639 -83.7039 206° Southwest 165 190 4,100  Level FAA TRACON SMA TRACON (SMA)
07:23 42.1508 -83.7131 207° Southwest 166 191 4,100  Level FAA TRACON SMA TRACON (SMA)
07:24 42.1344 -83.7231 204° Southwest 167 192 4,100 -180 Level FAA TRACON SMA TRACON (SMA)
07:24 42.1231 -83.7294 203° Southwest 165 190 4,000 -180 Descending FAA TRACON SMA TRACON (SMA)
07:24 42.1092 -83.7389 207° Southwest 163 188 4,000  Level FAA TRACON SMA TRACON (SMA)
07:25 42.0967 -83.7469 206° Southwest 162 186 4,000  Level FAA TRACON SMA TRACON (SMA)
07:25 42.0814 -83.7564 205° Southwest 158 182 4,000  Level FAA TRACON SMA TRACON (SMA)
07:25 42.0697 -83.7642 206° Southwest 155 178 4,000  Level FAA TRACON SMA TRACON (SMA)
07:26 42.0567 -83.7725 205° Southwest 153 176 4,000  Level FAA TRACON SMA TRACON (SMA)
07:26 42.0428 -83.7747 187° South 141 162 4,000  Level FAA TRACON SMA TRACON (SMA)
07:26 42.0303 -83.7758 184° South 151 174 4,000  Level FAA TRACON SMA TRACON (SMA)
07:27 42.0133 -83.7761 181° South 157 181 4,000 120 Level FAA TRACON SMA TRACON (SMA)
07:27 41.9967 -83.7767 181° South 156 180 4,100 120 Climbing FAA TRACON SMA TRACON (SMA)
07:27 41.9864 -83.7769 181° South 157 181 4,100  Level FAA TRACON SMA TRACON (SMA)
07:28 41.9728 -83.7775 182° South 157 181 4,100 -180 Level FAA TRACON SMA TRACON (SMA)
07:28 41.9558 -83.7778 181° South 159 183 4,000  Descending FAA TRACON SMA TRACON (SMA)
07:28 41.9419 -83.7775 179° South 160 184 4,100  Climbing FAA TRACON SMA TRACON (SMA)
07:29 41.9286 -83.7778 181° South 159 183 4,000 -180 Descending FAA TRACON SMA TRACON (SMA)
07:29 41.9111 -83.7772 179° South 160 184 4,000 120 Level FAA TRACON SMA TRACON (SMA)
07:29 41.8972 -83.7767 178° South 161 185 4,100  Climbing FAA TRACON SMA TRACON (SMA)
07:30 41.8836 -83.7767 180° South 161 185 4,000 -180 Descending FAA TRACON SMA TRACON (SMA)
07:30 41.8656 -83.7756 177° South 165 190 4,000 120 Level FAA TRACON SMA TRACON (SMA)
07:30 41.8514 -83.7750 178° South 166 191 4,100  Climbing FAA TRACON SMA TRACON (SMA)
07:31 41.8369 -83.7739 177° South 167 192 4,000  Descending FAA TRACON SMA TRACON (SMA)
07:31 41.8186 -83.7717 175° South 169 194 4,100  Climbing FAA TRACON SMA TRACON (SMA)
07:31 41.8042 -83.7697 174° South 169 194 4,000 -180 Descending FAA TRACON SMA TRACON (SMA)
07:32 41.7897 -83.7672 173° South 170 196 4,000  Level FAA TRACON SMA TRACON (SMA)
07:32 41.7717 -83.7647 174° South 170 196 4,000  Level FAA TRACON SMA TRACON (SMA)
07:32 41.7572 -83.7625 173° South 169 194 4,000  Level FAA TRACON SMA TRACON (SMA)
07:33 41.7431 -83.7603 173° South 169 194 4,000  Level FAA TRACON SMA TRACON (SMA)
07:33 41.7247 -83.7569 172° South 170 196 4,000  Level FAA TRACON SMA TRACON (SMA)
07:33 41.7103 -83.7544 173° South 170 196 4,000 120 Level FAA TRACON SMA TRACON (SMA)
07:34 41.6961 -83.7514 171° South 169 194 4,100 300 Climbing FAA TRACON SMA TRACON (SMA)
07:34 41.6792 -83.7417 157° South 177 204 4,200 300 Climbing FAA TRACON SMA TRACON (SMA)
07:34 41.6650 -83.7333 156° South 173 199 4,300 300 Climbing FAA TRACON SMA TRACON (SMA)
07:35 41.6475 -83.7247 160° South 184 212 4,400 240 Climbing FAA TRACON SMA TRACON (SMA)
07:35 41.6342 -83.7189 162° South 171 197 4,500 420 Climbing FAA TRACON SMA TRACON (SMA)
07:35 41.6200 -83.7114 158° South 174 200 4,700 600 Climbing FAA TRACON SMA TRACON (SMA)
07:36 41.6031 -83.7039 162° South 169 194 4,900 600 Climbing FAA TRACON SMA TRACON (SMA)
07:36 41.5897 -83.6967 158° South 168 193 5,100 420 Climbing FAA TRACON SMA TRACON (SMA)
07:36 41.5764 -83.6894 158° South 167 192 5,200 240 Climbing FAA TRACON SMA TRACON (SMA)
07:37 41.5597 -83.6803 158° South 169 194 5,300 420 Climbing FAA TRACON SMA TRACON (SMA)
07:37 41.5461 -83.6744 162° South 164 189 5,500 600 Climbing FAA TRACON SMA TRACON (SMA)
07:37 41.5328 -83.6683 161° South 166 191 5,700 720 Climbing FAA TRACON SMA TRACON (SMA)
07:38 41.5161 -83.6603 160° South 166 191 6,000 720 Climbing FAA TRACON SMA TRACON (SMA)
07:38 41.5028 -83.6525 156° South 167 192 6,200 420 Climbing FAA TRACON SMA TRACON (SMA)
07:38 41.4894 -83.6458 159° South 166 191 6,300 420 Climbing FAA TRACON SMA TRACON (SMA)
07:39 41.4728 -83.6381 161° South 165 190 6,500 540 Climbing FAA TRACON SMA TRACON (SMA)
07:39 41.4608 -83.6308 156° South 169 194 6,700 600 Climbing FAA TRACON SMA TRACON (SMA)
07:39 41.4439 -83.6214 157° South 171 197 6,900 600 Climbing FAA TRACON SMA TRACON (SMA)
07:40 41.4300 -83.6150 161° South 171 197 7,100 120 Climbing FAA TRACON SMA TRACON (SMA)
07:40 41.4156 -83.6103 166° South 174 200 7,000 -180 Descending FAA TRACON SMA TRACON (SMA)
07:40 41.3961 -83.6033 165° South 187 215 7,000 120 Level FAA TRACON SMA TRACON (SMA)
07:41 41.3806 -83.5981 166° South 184 212 7,100 120 Climbing FAA TRACON SMA TRACON (SMA)
07:41 41.3653 -83.5931 166° South 184 212 7,100 -180 Level FAA TRACON SMA TRACON (SMA)
07:41 41.3536 -83.5892 166° South 185 213 7,000 -180 Descending FAA TRACON SMA TRACON (SMA)
07:42 41.3536 -83.5892 66° East 185 213 7,000 -60 Level FAA TRACON SMA TRACON (SMA)
07:43 41.2456 -83.5458 163° South 184 212 6,900 -60 Descending Indianapolis Center
07:44 41.1961 -83.5281 165° South 183 211 6,900  Level Indianapolis Center
07:45 41.1464 -83.5042 160° South 187 215 6,900  Level Indianapolis Center
07:46 41.0967 -83.4781 158° South 189 217 6,900  Level Indianapolis Center
07:47 41.0464 -83.4539 160° South 191 220 6,900  Level Indianapolis Center
07:48 40.9947 -83.4278 159° South 195 224 6,900  Level Indianapolis Center
07:49 40.9428 -83.4042 161° South 196 226 6,900  Level Indianapolis Center
07:50 40.8894 -83.3831 163° South 197 227 6,900  Level Indianapolis Center
07:52 40.8358 -83.3614 163° South 200 230 7,000  Climbing Indianapolis Center
07:53 40.7767 -83.3389 164° South 199 229 6,900 -60 Descending Indianapolis Center
07:54 40.7258 -83.3189 163° South 192 221 6,900  Level Indianapolis Center
07:55 40.6761 -83.2994 163° South 186 214 6,900  Level Indianapolis Center
07:56 40.6242 -83.2769 162° South 191 220 6,900  Level Indianapolis Center
07:57 40.5728 -83.2569 164° South 192 221 6,900  Level Indianapolis Center
07:58 40.5203 -83.2358 163° South 194 223 7,000  Climbing Indianapolis Center
07:59 40.4508 -83.1808 149° Southeast 206 237 7,000 -60 Level Indianapolis Center
08:00 40.4253 -83.1503 138° Southeast 210 242 6,900  Descending Indianapolis Center
08:00 40.4061 -83.1317 144° Southeast 211 243 7,000  Climbing Indianapolis Center
08:01 40.3717 -83.0944 141° Southeast 209 241 6,900 -120 Descending Indianapolis Center
08:01 40.3531 -83.0789 148° Southeast 211 243 6,900 60 Level Indianapolis Center
08:02 40.3253 -83.0500 142° Southeast 205 236 7,000  Climbing Indianapolis Center
08:03 40.2792 -83.0081 145° Southeast 199 229 6,900 -120 Descending Indianapolis Center
08:04 40.2344 -82.9678 145° Southeast 195 224 6,800 -360 Descending Indianapolis Center
08:05 40.1864 -82.9244 145° Southeast 204 235 6,200 -720 Descending Indianapolis Center
08:06 40.1381 -82.8814 146° Southeast 209 241 5,400 -840 Descending Indianapolis Center
08:06 40.1197 -82.8772 170° South 207 238 5,100 -780 Descending Indianapolis Center
08:07 40.0817 -82.8700 172° South 206 237 4,600 -720 Descending Indianapolis Center
08:08 40.0261 -82.8708 181° South 201 231 3,900 -360 Descending Indianapolis Center
08:09 39.9783 -82.8692 178° South 186 214 3,900 -420 Level Indianapolis Center
08:10 39.9331 -82.8742 185° South 169 194 3,100 -840 Descending Indianapolis Center
08:11 39.8842 -82.8833 188° South 171 197 2,200 -1,020 Descending Indianapolis Center
08:12 39.8267 -82.9119 201° Southwest 152 175 800 -540 Descending Indianapolis Center
08:13 39.8006 -82.9192 192° South 168 193 1,200 480 Climbing Indianapolis Center
08:15 39.8000 -82.9167 180° South  Level FlightAware Approximate